createdAt,value
2019-05-15T00:00:40.676Z,97973.23
2019-05-15T00:02:18.396Z,97968.77
2019-05-15T00:03:58.532Z,97964.50
2019-05-15T00:05:34.126Z,97964.08
2019-05-15T00:07:09.720Z,97961.73
2019-05-15T00:08:50.236Z,97960.36
2019-05-15T00:10:25.370Z,97961.73
2019-05-15T00:12:03.124Z,97957.34
2019-05-15T00:13:39.227Z,97959.38
2019-05-15T00:15:18.209Z,97957.34
2019-05-15T00:16:58.552Z,97957.78
2019-05-15T00:18:33.902Z,97957.06
2019-05-15T00:20:09.959Z,97959.63
2019-05-15T00:21:48.991Z,97957.63
2019-05-15T00:23:24.954Z,97949.75
2019-05-15T00:25:00.716Z,97954.42
2019-05-15T00:26:38.369Z,97954.58
2019-05-15T00:28:13.667Z,97956.07
2019-05-15T00:29:49.790Z,97954.66
2019-05-15T00:31:25.857Z,97947.31
2019-05-15T00:33:02.760Z,97950.16
2019-05-15T00:34:39.805Z,97952.17
2019-05-15T00:36:19.129Z,97952.95
2019-05-15T00:37:52.462Z,97950.05
2019-05-15T00:39:30.641Z,97937.19
2019-05-15T00:41:06.250Z,97940.75
2019-05-15T00:42:44.859Z,97943.27
2019-05-15T00:44:20.897Z,97939.93
2019-05-15T00:46:01.024Z,97946.25
2019-05-15T00:47:39.682Z,97945.98
2019-05-15T00:49:15.074Z,97945.83
2019-05-15T00:50:51.143Z,97941.72
2019-05-15T00:52:28.138Z,97943.81
2019-05-15T00:54:03.936Z,97938.20
2019-05-15T00:55:39.727Z,97937.84
2019-05-15T00:57:15.761Z,97939.28
2019-05-15T00:58:54.684Z,97936.52
2019-05-15T01:00:43.713Z,97935.37
2019-05-15T01:02:19.736Z,97936.64
2019-05-15T01:03:55.052Z,97938.70
2019-05-15T01:05:31.090Z,97935.23
2019-05-15T01:07:08.335Z,97934.45
2019-05-15T01:08:43.989Z,97931.90
2019-05-15T01:10:19.670Z,97933.21
2019-05-15T01:11:55.403Z,97937.40
2019-05-15T01:13:35.726Z,97937.13
2019-05-15T01:15:13.921Z,97931.27
2019-05-15T01:16:49.712Z,97932.97
2019-05-15T01:18:25.693Z,97936.45
2019-05-15T01:20:01.947Z,97928.56
2019-05-15T01:21:38.620Z,97928.08
2019-05-15T01:23:14.346Z,97921.91
2019-05-15T01:24:50.253Z,97923.81
2019-05-15T01:26:25.565Z,97926.52
2019-05-15T01:28:01.286Z,97923.35
2019-05-15T01:29:44.487Z,97920.59
2019-05-15T01:31:14.711Z,97915.77
2019-05-15T01:32:50.223Z,97918.60
2019-05-15T01:34:29.382Z,97914.27
2019-05-15T01:36:04.861Z,97913.67
2019-05-15T01:37:40.840Z,97910.55
2019-05-15T01:39:18.486Z,97910.48
2019-05-15T01:40:53.775Z,97906.00
2019-05-15T01:42:29.390Z,97906.53
2019-05-15T01:44:05.204Z,97906.32
2019-05-15T01:45:42.694Z,97905.97
2019-05-15T01:47:19.144Z,97907.92
2019-05-15T01:48:54.583Z,97905.68
2019-05-15T01:50:30.335Z,97905.61
2019-05-15T01:52:10.305Z,97902.06
2019-05-15T01:53:48.172Z,97899.53
2019-05-15T01:55:23.680Z,97897.41
2019-05-15T01:56:59.594Z,97900.03
2019-05-15T01:58:34.812Z,97900.59
2019-05-15T02:00:11.070Z,97900.52
2019-05-15T02:01:48.571Z,97895.48
2019-05-15T02:03:25.591Z,97891.97
2019-05-15T02:05:00.887Z,97888.70
2019-05-15T02:06:38.925Z,97891.32
2019-05-15T02:08:15.300Z,97888.20
2019-05-15T02:09:51.599Z,97890.33
2019-05-15T02:11:28.843Z,97892.59
2019-05-15T02:13:04.864Z,97889.47
2019-05-15T02:14:40.903Z,97892.90
2019-05-15T02:16:18.988Z,97891.34
2019-05-15T02:17:53.768Z,97888.64
2019-05-15T02:21:23.765Z,97890.69
2019-05-15T02:22:59.814Z,97889.34
2019-05-15T02:24:38.853Z,97890.05
2019-05-15T02:26:12.364Z,97883.67
2019-05-15T02:27:48.052Z,97887.36
2019-05-15T02:29:25.289Z,97885.02
2019-05-15T02:31:00.801Z,97887.49
2019-05-15T02:32:39.531Z,97889.22
2019-05-15T02:34:13.377Z,97882.89
2019-05-15T02:35:50.399Z,97888.27
2019-05-15T02:37:29.384Z,97890.56
2019-05-15T02:39:03.794Z,97884.19
2019-05-15T02:40:40.425Z,97888.58
2019-05-15T02:42:19.246Z,97890.14
2019-05-15T02:43:53.698Z,97889.70
2019-05-15T02:45:30.205Z,97887.93
2019-05-15T02:47:05.725Z,97888.63
2019-05-15T02:48:41.391Z,97890.19
2019-05-15T02:50:20.226Z,97887.64
2019-05-15T02:51:54.507Z,97893.19
2019-05-15T02:53:32.070Z,97891.84
2019-05-15T02:55:09.319Z,97890.06
2019-05-15T02:56:45.294Z,97887.86
2019-05-15T02:58:21.824Z,97887.77
2019-05-15T02:59:59.400Z,97889.69
2019-05-15T03:01:40.039Z,97889.85
2019-05-15T03:03:14.015Z,97891.33
2019-05-15T03:04:49.453Z,97888.77
2019-05-15T03:06:24.772Z,97885.86
2019-05-15T03:08:00.268Z,97893.94
2019-05-15T03:09:39.681Z,97886.56
2019-05-15T03:11:14.098Z,97887.13
2019-05-15T03:12:49.667Z,97884.81
2019-05-15T03:14:25.182Z,97884.60
2019-05-15T03:16:00.960Z,97882.39
2019-05-15T03:17:40.343Z,97882.83
2019-05-15T03:19:13.960Z,97882.17
2019-05-15T03:20:50.298Z,97885.78
2019-05-15T03:22:29.110Z,97881.25
2019-05-15T03:24:03.121Z,97885.98
2019-05-15T03:25:40.456Z,97886.34
2019-05-15T03:27:19.459Z,97883.21
2019-05-15T03:28:59.168Z,97884.91
2019-05-15T03:31:06.759Z,97886.12
2019-05-15T03:32:34.184Z,97890.41
2019-05-15T03:34:03.033Z,97887.10
2019-05-15T03:35:43.016Z,97890.01
2019-05-15T03:37:21.456Z,97888.92
2019-05-15T03:38:53.282Z,97884.89
2019-05-15T03:40:29.900Z,97888.02
2019-05-15T03:42:05.905Z,97890.70
2019-05-15T03:43:44.100Z,97890.70
2019-05-15T03:45:22.043Z,97887.23
2019-05-15T03:47:02.513Z,97887.80
2019-05-15T03:48:40.164Z,97889.84
2019-05-15T03:50:15.337Z,97891.18
2019-05-15T03:51:50.700Z,97890.48
2019-05-15T03:53:29.569Z,97896.64
2019-05-15T03:55:03.246Z,97895.39
2019-05-15T03:56:39.668Z,97893.67
2019-05-15T03:58:20.922Z,97892.19
2019-05-15T03:59:55.689Z,97889.72
2019-05-15T04:01:38.517Z,97887.25
2019-05-15T04:03:10.710Z,97887.81
2019-05-15T04:04:50.045Z,97885.69
2019-05-15T04:06:24.406Z,97890.63
2019-05-15T04:08:00.366Z,97893.97
2019-05-15T04:09:38.642Z,97893.97
2019-05-15T04:11:13.198Z,97891.37
2019-05-15T04:12:49.391Z,97890.89
2019-05-15T04:14:24.911Z,97891.38
2019-05-15T04:16:00.389Z,97891.80
2019-05-15T04:17:36.045Z,97896.05
2019-05-15T04:19:11.931Z,97890.51
2019-05-15T04:20:49.351Z,97891.86
2019-05-15T04:22:25.467Z,97892.72
2019-05-15T04:24:00.916Z,97891.72
2019-05-15T04:25:39.209Z,97890.94
2019-05-15T04:27:14.193Z,97890.59
2019-05-15T04:28:51.676Z,97888.42
2019-05-15T04:30:27.086Z,97885.86
2019-05-15T04:32:06.079Z,97889.34
2019-05-15T04:33:40.537Z,97881.69
2019-05-15T04:35:19.582Z,97883.81
2019-05-15T04:36:53.926Z,97880.20
2019-05-15T04:38:39.257Z,97875.23
2019-05-15T04:40:13.353Z,97879.78
2019-05-15T04:41:50.536Z,97877.85
2019-05-15T04:43:30.357Z,97873.77
2019-05-15T04:45:10.015Z,97867.84
2019-05-15T04:46:44.985Z,97869.28
2019-05-15T04:48:24.846Z,97866.81
2019-05-15T04:50:00.752Z,97869.20
2019-05-15T04:51:38.797Z,97867.16
2019-05-15T04:53:19.283Z,97869.06
2019-05-15T04:54:53.440Z,97865.06
2019-05-15T04:56:29.424Z,97864.15
2019-05-15T04:58:10.004Z,97857.30
2019-05-15T04:59:45.898Z,97857.40
2019-05-15T05:01:24.100Z,97853.95
2019-05-15T05:03:01.428Z,97842.48
2019-05-15T05:04:38.730Z,97843.55
2019-05-15T05:06:19.043Z,97843.02
2019-05-15T05:07:55.933Z,97846.53
2019-05-15T05:09:31.961Z,97840.91
2019-05-15T05:11:09.704Z,97834.12
2019-05-15T05:12:44.381Z,97837.13
2019-05-15T05:14:19.581Z,97824.05
2019-05-15T05:15:58.464Z,97821.27
2019-05-15T05:17:40.767Z,97821.16
2019-05-15T05:19:32.954Z,97818.88
2019-05-15T05:21:40.413Z,97825.27
2019-05-15T05:23:19.192Z,97818.33
2019-05-15T05:24:55.877Z,97817.25
2019-05-15T05:26:32.170Z,97816.37
2019-05-15T05:28:08.729Z,97821.97
2019-05-15T05:29:44.677Z,97814.55
2019-05-15T05:31:20.184Z,97815.63
2019-05-15T05:33:00.128Z,97814.42
2019-05-15T05:34:39.711Z,97816.13
2019-05-15T05:36:15.510Z,97815.51
2019-05-15T05:37:50.932Z,97814.55
2019-05-15T05:40:04.606Z,97812.72
2019-05-15T05:41:40.683Z,97820.64
2019-05-15T05:43:18.242Z,97818.13
2019-05-15T05:44:55.326Z,97822.39
2019-05-15T05:46:35.369Z,97821.63
2019-05-15T05:48:11.258Z,97821.64
2019-05-15T05:49:48.843Z,97821.13
2019-05-15T05:51:24.388Z,97825.67
2019-05-15T05:53:00.509Z,97818.61
2019-05-15T05:54:38.245Z,97815.08
2019-05-15T05:56:18.109Z,97819.56
2019-05-15T05:57:55.471Z,97817.47
2019-05-15T05:59:31.128Z,97813.78
2019-05-15T06:01:09.438Z,97820.73
2019-05-15T06:02:48.777Z,97817.84
2019-05-15T06:04:23.792Z,97823.85
2019-05-15T06:06:09.422Z,97823.51
2019-05-15T06:08:19.137Z,97822.16
2019-05-15T06:09:58.095Z,97820.91
2019-05-15T06:11:38.194Z,97832.13
2019-05-15T06:13:14.565Z,97827.86
2019-05-15T06:14:51.804Z,97827.80
2019-05-15T06:16:28.534Z,97828.52
2019-05-15T06:18:03.708Z,97826.05
2019-05-15T06:19:39.868Z,97824.42
2019-05-15T06:21:18.561Z,97821.50
2019-05-15T06:22:57.960Z,97822.72
2019-05-15T06:24:33.974Z,97822.17
2019-05-15T06:26:11.222Z,97819.34
2019-05-15T06:27:49.449Z,97818.19
2019-05-15T06:29:29.239Z,97816.11
2019-05-15T06:31:10.465Z,97820.56
2019-05-15T06:33:05.028Z,97820.07
2019-05-15T06:34:28.577Z,97818.02
2019-05-15T06:36:04.527Z,97813.23
2019-05-15T06:37:40.143Z,97813.91
2019-05-15T06:39:20.330Z,97820.38
2019-05-15T06:40:58.852Z,97820.45
2019-05-15T06:42:38.950Z,97812.59
2019-05-15T06:44:19.227Z,97816.45
2019-05-15T06:45:59.505Z,97817.78
2019-05-15T06:47:35.025Z,97814.16
2019-05-15T06:49:10.863Z,97806.95
2019-05-15T06:50:48.816Z,97815.97
2019-05-15T06:52:24.694Z,97810.02
2019-05-15T06:54:00.086Z,97812.38
2019-05-15T06:55:38.848Z,97811.36
2019-05-15T06:57:13.561Z,97806.48
2019-05-15T06:58:49.257Z,97805.63
2019-05-15T07:00:28.428Z,97809.49
2019-05-15T07:02:04.317Z,97800.25
2019-05-15T07:03:39.629Z,97811.17
2019-05-15T07:05:19.187Z,97809.98
2019-05-15T07:06:58.367Z,97806.21
2019-05-15T07:08:34.355Z,97808.48
2019-05-15T07:10:09.701Z,97812.47
2019-05-15T07:11:48.250Z,97809.62
2019-05-15T07:13:24.248Z,97808.00
2019-05-15T07:15:00.024Z,97798.66
2019-05-15T07:16:35.172Z,97805.28
2019-05-15T07:18:34.416Z,97803.30
2019-05-15T07:20:18.566Z,97798.01
2019-05-15T07:21:54.420Z,97798.55
2019-05-15T07:23:30.754Z,97796.95
2019-05-15T07:25:12.447Z,97789.30
2019-05-15T07:26:49.429Z,97787.58
2019-05-15T07:28:24.842Z,97789.05
2019-05-15T07:30:07.753Z,97785.02
2019-05-15T07:31:47.712Z,97785.41
2019-05-15T07:33:36.747Z,97785.27
2019-05-15T07:35:03.163Z,97787.01
2019-05-15T07:36:40.854Z,97775.97
2019-05-15T07:38:23.389Z,97779.56
2019-05-15T07:39:59.227Z,97770.69
2019-05-15T07:41:35.340Z,97771.11
2019-05-15T07:43:12.852Z,97769.48
2019-05-15T07:44:52.127Z,97776.53
2019-05-15T07:46:28.845Z,97783.34
2019-05-15T07:48:04.336Z,97784.42
2019-05-15T07:49:39.919Z,97787.47
2019-05-15T07:51:17.815Z,97784.00
2019-05-15T07:52:55.602Z,97780.05
2019-05-15T07:54:31.316Z,97768.31
2019-05-15T07:56:11.742Z,97772.77
2019-05-15T07:57:44.722Z,97771.09
2019-05-15T07:59:22.771Z,97771.25
2019-05-15T08:02:40.280Z,97769.02
2019-05-15T08:04:26.184Z,97773.83
2019-05-15T08:06:24.339Z,97771.40
2019-05-15T08:09:55.135Z,97767.89
2019-05-15T08:11:34.606Z,97769.97
2019-05-15T08:13:18.177Z,97767.65
2019-05-15T08:14:54.353Z,97756.58
2019-05-15T08:16:43.257Z,97759.27
2019-05-15T08:18:28.423Z,97751.11
2019-05-15T08:20:11.109Z,97748.23
2019-05-15T08:21:58.391Z,97748.85
2019-05-15T08:23:38.981Z,97744.69
2019-05-15T08:25:30.144Z,97756.20
2019-05-15T08:26:50.337Z,97745.41
2019-05-15T08:28:28.865Z,97740.92
2019-05-15T08:30:08.767Z,97737.24
2019-05-15T08:31:43.464Z,97740.90
2019-05-15T08:33:22.053Z,97742.17
2019-05-15T08:34:59.872Z,97739.09
2019-05-15T08:36:39.218Z,97736.47
2019-05-15T08:38:18.197Z,97731.63
2019-05-15T08:39:59.625Z,97732.34
2019-05-15T08:41:35.399Z,97730.21
2019-05-15T08:43:19.276Z,97730.74
2019-05-15T08:44:59.253Z,97730.45
2019-05-15T08:46:34.586Z,97730.56
2019-05-15T08:48:12.388Z,97723.42
2019-05-15T08:49:48.460Z,97723.88
2019-05-15T08:51:25.776Z,97721.52
2019-05-15T08:53:05.635Z,97709.80
2019-05-15T08:54:41.344Z,97714.17
2019-05-15T08:56:39.303Z,97712.26
2019-05-15T08:58:20.774Z,97703.46
2019-05-15T08:59:58.285Z,97706.16
2019-05-15T09:01:34.002Z,97713.22
2019-05-15T09:03:12.582Z,97701.61
2019-05-15T09:04:51.768Z,97706.22
2019-05-15T09:06:30.850Z,97698.99
2019-05-15T09:08:18.847Z,97690.27
2019-05-15T09:09:51.339Z,97691.84
2019-05-15T09:11:28.383Z,97703.12
2019-05-15T09:13:03.824Z,97693.17
2019-05-15T09:14:44.908Z,97694.79
2019-05-15T09:16:23.084Z,97701.84
2019-05-15T09:18:11.015Z,97704.14
2019-05-15T09:19:38.782Z,97697.05
2019-05-15T09:21:15.934Z,97684.55
2019-05-15T09:22:51.302Z,97696.83
2019-05-15T09:24:28.589Z,97689.21
2019-05-15T09:26:04.081Z,97698.70
2019-05-15T09:27:42.386Z,97696.40
2019-05-15T09:29:18.667Z,97693.33
2019-05-15T09:30:54.145Z,97693.06
2019-05-15T09:32:31.954Z,97694.66
2019-05-15T09:34:24.441Z,97688.09
2019-05-15T09:36:00.889Z,97691.47
2019-05-15T09:37:38.281Z,97678.66
2019-05-15T09:39:22.169Z,97674.92
2019-05-15T09:40:58.515Z,97677.13
2019-05-15T09:42:33.971Z,97669.09
2019-05-15T09:44:09.565Z,97680.09
2019-05-15T09:45:45.098Z,97673.06
2019-05-15T09:47:23.061Z,97659.13
2019-05-15T09:49:02.449Z,97663.24
2019-05-15T09:50:42.086Z,97666.61
2019-05-15T09:52:22.513Z,97672.14
2019-05-15T09:54:00.431Z,97666.77
2019-05-15T09:55:39.354Z,97664.11
2019-05-15T09:57:20.376Z,97671.81
2019-05-15T09:59:01.830Z,97679.80
2019-05-15T10:00:40.185Z,97674.75
2019-05-15T10:02:28.372Z,97679.52
2019-05-15T10:04:04.228Z,97678.89
2019-05-15T10:05:57.508Z,97672.28
2019-05-15T10:07:33.433Z,97673.13
2019-05-15T10:09:32.213Z,97664.23
2019-05-15T10:11:01.422Z,97671.98
2019-05-15T10:12:39.462Z,97659.58
2019-05-15T10:14:19.279Z,97668.04
2019-05-15T10:15:59.599Z,97656.19
2019-05-15T10:17:39.231Z,97652.75
2019-05-15T10:19:15.156Z,97652.44
2019-05-15T10:20:53.650Z,97640.78
2019-05-15T10:22:30.571Z,97646.23
2019-05-15T10:24:09.416Z,97649.06
2019-05-15T10:25:58.754Z,97653.69
2019-05-15T10:27:31.301Z,97647.78
2019-05-15T10:29:10.788Z,97648.70
2019-05-15T10:30:50.091Z,97645.47
2019-05-15T10:32:29.022Z,97642.22
2019-05-15T10:34:05.505Z,97642.20
2019-05-15T10:35:43.095Z,97618.56
2019-05-15T10:37:21.458Z,97632.69
2019-05-15T10:39:00.526Z,97641.49
2019-05-15T10:40:58.489Z,97637.60
2019-05-15T10:42:23.181Z,97634.48
2019-05-15T10:44:13.789Z,97637.30
2019-05-15T10:45:54.671Z,97628.39
2019-05-15T10:47:30.778Z,97633.63
2019-05-15T10:49:08.626Z,97629.22
2019-05-15T10:50:47.585Z,97631.66
2019-05-15T10:52:24.507Z,97634.77
2019-05-15T10:53:59.822Z,97623.55
2019-05-15T10:55:35.602Z,97628.28
2019-05-15T10:57:10.748Z,97623.33
2019-05-15T10:58:50.609Z,97624.95
2019-05-15T11:00:28.606Z,97626.16
2019-05-15T11:02:05.186Z,97624.27
2019-05-15T11:03:50.262Z,97619.22
2019-05-15T11:05:41.849Z,97611.66
2019-05-15T11:07:19.504Z,97612.87
2019-05-15T11:09:01.845Z,97613.33
2019-05-15T11:10:41.474Z,97596.06
2019-05-15T11:12:14.902Z,97608.27
2019-05-15T11:13:50.469Z,97613.93
2019-05-15T11:15:30.089Z,97613.81
2019-05-15T11:17:08.840Z,97611.66
2019-05-15T11:18:58.506Z,97609.14
2019-05-15T11:20:41.176Z,97615.09
2019-05-15T11:22:20.450Z,97612.16
2019-05-15T11:23:58.858Z,97618.66
2019-05-15T11:25:41.975Z,97606.83
2019-05-15T11:27:21.384Z,97605.44
2019-05-15T11:29:00.262Z,97604.48
2019-05-15T11:30:35.439Z,97598.91
2019-05-15T11:32:29.465Z,97585.97
2019-05-15T11:34:05.313Z,97604.20
2019-05-15T11:35:56.739Z,97602.22
2019-05-15T11:37:24.322Z,97600.27
2019-05-15T11:39:03.625Z,97605.52
2019-05-15T11:40:39.063Z,97595.56
2019-05-15T11:42:16.659Z,97596.17
2019-05-15T11:43:51.767Z,97580.52
2019-05-15T11:48:02.784Z,97590.67
2019-05-15T11:49:40.196Z,97590.01
2019-05-15T11:51:18.521Z,97591.03
2019-05-15T11:52:54.203Z,97593.11
2019-05-15T11:54:29.540Z,97591.09
2019-05-15T11:56:05.562Z,97589.16
2019-05-15T11:57:47.335Z,97589.82
2019-05-15T11:59:26.162Z,97584.28
2019-05-15T12:01:03.437Z,97579.83
2019-05-15T12:02:40.212Z,97578.67
2019-05-15T12:04:30.165Z,97582.91
2019-05-15T12:06:14.925Z,97577.27
2019-05-15T12:07:38.216Z,97581.27
2019-05-15T12:09:13.849Z,97579.20
2019-05-15T12:10:49.692Z,97576.50
2019-05-15T12:12:31.785Z,97580.61
2019-05-15T12:14:08.889Z,97586.08
2019-05-15T12:15:44.833Z,97586.75
2019-05-15T12:17:20.173Z,97569.83
2019-05-15T12:18:58.634Z,97567.68
2019-05-15T12:20:33.174Z,97573.89
2019-05-15T12:22:11.976Z,97565.20
2019-05-15T12:23:51.099Z,97575.31
2019-05-15T12:25:39.801Z,97574.89
2019-05-15T12:27:18.444Z,97573.23
2019-05-15T12:28:59.128Z,97566.08
2019-05-15T12:30:40.379Z,97564.92
2019-05-15T12:32:26.479Z,97574.22
2019-05-15T12:33:53.476Z,97570.05
2019-05-15T12:35:29.698Z,97554.78
2019-05-15T12:37:13.010Z,97567.22
2019-05-15T12:38:50.207Z,97565.52
2019-05-15T13:00:34.884Z,97546.06
2019-05-15T13:02:10.671Z,97552.15
2019-05-15T13:03:45.930Z,97538.51
2019-05-15T13:05:21.698Z,97546.11
2019-05-15T13:07:12.245Z,97544.45
2019-05-15T13:08:38.483Z,97545.78
2019-05-15T13:10:14.354Z,97539.05
2019-05-15T13:11:52.895Z,97538.11
2019-05-15T13:13:34.019Z,97550.62
2019-05-15T13:15:13.458Z,97546.81
2019-05-15T13:16:48.863Z,97534.99
2019-05-15T13:18:28.621Z,97529.11
2019-05-15T13:20:03.526Z,97529.45
2019-05-15T13:21:43.019Z,97528.91
2019-05-15T13:23:28.636Z,97528.92
2019-05-15T13:25:12.930Z,97530.04
2019-05-15T13:27:07.798Z,97522.92
2019-05-15T13:28:48.629Z,97531.37
2019-05-15T13:30:30.153Z,97529.52
2019-05-15T13:32:08.045Z,97525.24
2019-05-15T13:33:44.203Z,97524.92
2019-05-15T13:35:22.315Z,97516.86
2019-05-15T13:37:11.113Z,97520.02
2019-05-15T13:39:13.658Z,97519.52
2019-05-15T13:40:54.838Z,97506.73
2019-05-15T13:42:34.299Z,97503.35
2019-05-15T13:44:22.723Z,97508.24
2019-05-15T13:46:08.825Z,97508.48
2019-05-15T13:47:47.918Z,97507.86
2019-05-15T13:49:23.620Z,97515.77
2019-05-15T13:50:59.411Z,97496.78
2019-05-15T13:52:39.273Z,97496.98
2019-05-15T13:54:18.820Z,97498.91
2019-05-15T13:55:59.371Z,97500.51
2019-05-15T13:57:38.346Z,97505.86
2019-05-15T13:59:15.759Z,97506.39
2019-05-15T14:00:52.597Z,97492.61
2019-05-15T14:02:30.468Z,97500.45
2019-05-15T14:04:08.538Z,97508.17
2019-05-15T14:05:48.888Z,97499.53
2019-05-15T14:07:25.662Z,97497.43
2019-05-15T14:09:04.925Z,97490.59
2019-05-15T14:10:40.962Z,97498.06
2019-05-15T14:12:18.944Z,97493.45
2019-05-15T14:13:59.292Z,97498.09
2019-05-15T14:15:38.025Z,97498.64
2019-05-15T14:17:22.929Z,97493.28
2019-05-15T14:19:05.204Z,97491.80
2019-05-15T14:20:49.053Z,97490.77
2019-05-15T14:22:31.193Z,97488.44
2019-05-15T14:24:08.995Z,97487.09
2019-05-15T14:25:48.226Z,97485.44
2019-05-15T14:27:29.501Z,97479.30
2019-05-15T14:29:08.820Z,97497.95
2019-05-15T14:30:44.575Z,97492.80
2019-05-15T14:32:35.362Z,97487.95
2019-05-15T14:34:03.810Z,97492.20
2019-05-15T14:35:48.353Z,97488.27
2019-05-15T14:37:28.597Z,97481.66
2019-05-15T14:39:15.629Z,97480.13
2019-05-15T14:40:51.556Z,97469.52
2019-05-15T14:42:29.326Z,97481.09
2019-05-15T14:44:14.618Z,97478.11
2019-05-15T14:45:47.975Z,97459.18
2019-05-15T14:47:26.256Z,97465.58
2019-05-15T14:49:08.769Z,97473.05
2019-05-15T14:50:47.527Z,97473.63
2019-05-15T14:52:22.615Z,97483.47
2019-05-15T14:54:01.106Z,97487.46
2019-05-15T14:55:49.206Z,97485.37
2019-05-15T14:57:30.731Z,97470.48
2019-05-15T14:59:09.080Z,97482.98
2019-05-15T15:00:54.539Z,97466.61
2019-05-15T15:02:33.267Z,97468.19
2019-05-15T15:04:09.026Z,97470.22
2019-05-15T15:05:49.106Z,97474.88
2019-05-15T15:07:28.279Z,97463.91
2019-05-15T15:09:08.384Z,97467.20
2019-05-15T15:10:44.394Z,97465.92
2019-05-15T15:12:22.189Z,97467.39
2019-05-15T15:13:59.363Z,97465.02
2019-05-15T15:15:37.897Z,97469.20
2019-05-15T15:17:12.628Z,97462.70
2019-05-15T15:18:48.841Z,97471.06
2019-05-15T15:20:32.222Z,97466.23
2019-05-15T15:22:14.529Z,97466.03
2019-05-15T15:23:54.113Z,97459.97
2019-05-15T15:25:39.692Z,97451.25
2019-05-15T15:27:27.953Z,97444.77
2019-05-15T15:29:08.533Z,97448.16
2019-05-15T15:30:48.781Z,97459.62
2019-05-15T15:32:25.437Z,97458.55
2019-05-15T15:34:02.386Z,97460.22
2019-05-15T15:35:39.581Z,97454.42
2019-05-15T15:37:15.597Z,97450.90
2019-05-15T15:38:51.757Z,97448.29
2019-05-15T15:40:28.236Z,97449.97
2019-05-15T15:42:04.126Z,97443.68
2019-05-15T15:43:40.356Z,97438.59
2019-05-15T15:45:19.126Z,97446.46
2019-05-15T15:46:59.704Z,97446.04
2019-05-15T15:48:38.900Z,97444.25
2019-05-15T15:50:18.311Z,97444.70
2019-05-15T15:51:54.210Z,97446.73
2019-05-15T15:53:31.186Z,97443.91
2019-05-15T15:55:09.358Z,97443.55
2019-05-15T15:56:45.287Z,97436.97
2019-05-15T15:58:23.342Z,97432.95
2019-05-15T16:00:03.310Z,97433.45
2019-05-15T16:01:49.153Z,97436.70
2019-05-15T16:03:24.610Z,97439.25
2019-05-15T16:05:04.098Z,97432.66
2019-05-15T16:06:40.391Z,97442.77
2019-05-15T16:08:19.063Z,97443.79
2019-05-15T16:09:58.904Z,97432.95
2019-05-15T16:11:53.320Z,97433.02
2019-05-15T16:13:32.308Z,97426.00
2019-05-15T16:15:09.089Z,97435.56
2019-05-15T16:16:49.118Z,97435.92
2019-05-15T16:18:28.887Z,97433.77
2019-05-15T16:20:11.240Z,97436.48
2019-05-15T16:21:59.531Z,97438.65
2019-05-15T16:23:39.629Z,97430.80
2019-05-15T16:25:18.535Z,97432.52
2019-05-15T16:27:00.966Z,97433.98
2019-05-15T16:28:38.787Z,97427.98
2019-05-15T16:30:18.747Z,97432.73
2019-05-15T16:31:58.283Z,97432.27
2019-05-15T16:33:38.867Z,97439.91
2019-05-15T16:35:18.489Z,97442.09
2019-05-15T16:36:55.290Z,97435.67
2019-05-15T16:38:44.152Z,97427.88
2019-05-15T16:40:19.567Z,97434.91
2019-05-15T16:42:00.241Z,97434.88
2019-05-15T16:43:42.243Z,97428.91
2019-05-15T16:45:21.338Z,97428.59
2019-05-15T16:47:00.287Z,97432.70
2019-05-15T16:48:38.782Z,97426.70
2019-05-15T16:50:18.053Z,97427.30
2019-05-15T16:52:00.633Z,97423.38
2019-05-15T16:53:38.180Z,97417.57
2019-05-15T16:55:15.639Z,97416.35
2019-05-15T16:56:55.813Z,97411.45
2019-05-15T16:58:42.172Z,97414.22
2019-05-15T17:00:23.673Z,97421.41
2019-05-15T17:02:08.482Z,97415.63
2019-05-15T17:03:42.109Z,97421.26
2019-05-15T17:05:18.577Z,97426.16
2019-05-15T17:06:59.497Z,97422.33
2019-05-15T17:08:38.785Z,97423.52
2019-05-15T17:10:20.654Z,97426.59
2019-05-15T17:11:58.353Z,97427.56
2019-05-15T17:13:39.215Z,97427.16
2019-05-15T17:15:23.984Z,97425.33
2019-05-15T17:17:08.546Z,97426.85
2019-05-15T17:18:45.730Z,97429.62
2019-05-15T17:20:21.317Z,97433.56
2019-05-15T17:22:02.464Z,97428.62
2019-05-15T17:23:39.038Z,97422.02
2019-05-15T17:25:14.280Z,97432.63
2019-05-15T17:26:53.032Z,97436.92
2019-05-15T17:28:33.704Z,97443.45
2019-05-15T17:30:10.130Z,97441.65
2019-05-15T17:31:48.771Z,97433.66
2019-05-15T17:33:28.881Z,97436.96
2019-05-15T17:35:20.099Z,97426.00
2019-05-15T17:36:58.365Z,97425.94
2019-05-15T17:38:38.114Z,97428.34
2019-05-15T17:40:17.812Z,97429.16
2019-05-15T17:41:59.325Z,97433.29
2019-05-15T17:43:37.905Z,97440.11
2019-05-15T17:45:22.674Z,97429.31
2019-05-15T17:47:33.763Z,97434.11
2019-05-15T17:49:15.731Z,97429.80
2019-05-15T17:50:59.564Z,97429.28
2019-05-15T17:52:39.175Z,97426.66
2019-05-15T17:54:18.479Z,97429.24
2019-05-15T17:55:58.680Z,97433.25
2019-05-15T17:57:38.649Z,97434.33
2019-05-15T17:59:22.107Z,97437.80
2019-05-15T18:01:00.109Z,97429.85
2019-05-15T18:02:48.883Z,97426.86
2019-05-15T18:04:38.569Z,97439.55
2019-05-15T18:06:24.523Z,97438.45
2019-05-15T18:08:00.037Z,97439.25
2019-05-15T18:09:48.394Z,97436.41
2019-05-15T18:11:12.682Z,97447.16
2019-05-15T18:12:52.324Z,97434.36
2019-05-15T18:14:30.764Z,97437.31
2019-05-15T18:16:13.681Z,97442.00
2019-05-15T18:17:49.632Z,97446.11
2019-05-15T18:19:39.938Z,97441.62
2019-05-15T18:21:23.507Z,97438.95
2019-05-15T18:23:05.092Z,97438.49
2019-05-15T18:24:58.105Z,97440.69
2019-05-15T18:26:38.712Z,97443.38
2019-05-15T18:28:14.695Z,97446.20
2019-05-15T18:29:51.438Z,97446.40
2019-05-15T18:31:31.499Z,97438.39
2019-05-15T18:33:08.831Z,97443.48
2019-05-15T18:34:52.798Z,97439.09
2019-05-15T18:36:32.873Z,97436.84
2019-05-15T18:38:09.992Z,97435.17
2019-05-15T18:39:49.373Z,97439.13
2019-05-15T18:41:28.503Z,97441.59
2019-05-15T18:43:04.823Z,97443.95
2019-05-15T18:44:41.351Z,97439.34
2019-05-15T18:46:29.738Z,97449.77
2019-05-15T18:48:18.344Z,97441.99
2019-05-15T18:50:05.359Z,97443.61
2019-05-15T18:51:55.480Z,97444.48
2019-05-15T18:53:33.393Z,97444.37
2019-05-15T18:55:13.604Z,97448.75
2019-05-15T18:56:51.708Z,97441.62
2019-05-15T18:58:39.593Z,97448.77
2019-05-15T19:00:30.201Z,97452.41
2019-05-15T19:02:01.408Z,97452.80
2019-05-15T19:03:38.491Z,97450.64
2019-05-15T19:05:24.081Z,97447.91
2019-05-15T19:07:01.601Z,97453.40
2019-05-15T19:08:43.225Z,97452.13
2019-05-15T19:10:28.151Z,97458.20
2019-05-15T19:12:11.357Z,97459.38
2019-05-15T19:13:52.541Z,97462.61
2019-05-15T19:15:29.927Z,97462.27
2019-05-15T19:17:10.187Z,97462.16
2019-05-15T19:18:47.928Z,97467.52
2019-05-15T19:20:23.213Z,97460.97
2019-05-15T19:22:07.750Z,97462.03
2019-05-15T19:23:50.112Z,97459.77
2019-05-15T19:25:22.848Z,97460.98
2019-05-15T19:26:59.818Z,97459.95
2019-05-15T19:28:35.320Z,97454.91
2019-05-15T19:30:14.993Z,97458.91
2019-05-15T19:31:51.071Z,97464.68
2019-05-15T19:33:34.434Z,97460.42
2019-05-15T19:35:04.183Z,97458.70
2019-05-15T19:36:42.310Z,97456.31
2019-05-15T19:38:24.049Z,97459.58
2019-05-15T19:40:00.241Z,97459.52
2019-05-15T19:41:38.383Z,97457.44
2019-05-15T19:43:21.533Z,97459.88
2019-05-15T19:47:01.594Z,97464.09
2019-05-15T19:48:39.922Z,97463.63
2019-05-15T19:50:18.042Z,97466.73
2019-05-15T19:51:55.416Z,97465.36